sensor_id;sensor_type;location;lat;lon;timestamp;P1;durP1;ratioP1;P2;durP2;ratioP2
69030;SDS011;56083;48.774;8.942;2023-03-01T00:01:31;43.65;;;21.10;;
69030;SDS011;56083;48.774;8.942;2023-03-01T00:03:57;43.47;;;22.30;;
69030;SDS011;56083;48.774;8.942;2023-03-01T00:06:23;38.03;;;20.77;;
69030;SDS011;56083;48.774;8.942;2023-03-01T00:08:50;37.45;;;21.73;;
69030;SDS011;56083;48.774;8.942;2023-03-01T00:11:18;38.13;;;20.63;;
69030;SDS011;56083;48.774;8.942;2023-03-01T00:13:44;41.42;;;20.98;;
69030;SDS011;56083;48.774;8.942;2023-03-01T00:16:13;39.30;;;21.83;;
69030;SDS011;56083;48.774;8.942;2023-03-01T00:18:40;39.28;;;21.08;;
69030;SDS011;56083;48.774;8.942;2023-03-01T00:21:06;42.95;;;21.65;;
69030;SDS011;56083;48.774;8.942;2023-03-01T00:23:33;44.05;;;22.33;;
69030;SDS011;56083;48.774;8.942;2023-03-01T00:26:00;38.53;;;21.58;;
69030;SDS011;56083;48.774;8.942;2023-03-01T00:28:25;41.38;;;22.63;;
69030;SDS011;56083;48.774;8.942;2023-03-01T00:30:51;40.50;;;22.05;;
69030;SDS011;56083;48.774;8.942;2023-03-01T00:33:17;42.08;;;21.85;;
69030;SDS011;56083;48.774;8.942;2023-03-01T00:35:43;48.28;;;22.35;;
69030;SDS011;56083;48.774;8.942;2023-03-01T00:38:09;39.33;;;21.20;;
69030;SDS011;56083;48.774;8.942;2023-03-01T00:40:35;39.65;;;21.58;;
69030;SDS011;56083;48.774;8.942;2023-03-01T00:43:02;40.53;;;21.77;;
69030;SDS011;56083;48.774;8.942;2023-03-01T00:45:28;41.83;;;22.02;;
69030;SDS011;56083;48.774;8.942;2023-03-01T00:47:55;43.35;;;22.60;;
69030;SDS011;56083;48.774;8.942;2023-03-01T00:50:22;37.83;;;21.75;;
69030;SDS011;56083;48.774;8.942;2023-03-01T00:52:51;44.42;;;22.25;;
69030;SDS011;56083;48.774;8.942;2023-03-01T00:55:18;43.30;;;22.95;;
69030;SDS011;56083;48.774;8.942;2023-03-01T00:57:44;42.03;;;23.23;;
69030;SDS011;56083;48.774;8.942;2023-03-01T01:00:10;46.70;;;22.73;;
69030;SDS011;56083;48.774;8.942;2023-03-01T01:02:36;45.10;;;23.27;;
69030;SDS011;56083;48.774;8.942;2023-03-01T01:05:02;46.03;;;23.25;;
69030;SDS011;56083;48.774;8.942;2023-03-01T01:07:29;46.40;;;23.98;;
69030;SDS011;56083;48.774;8.942;2023-03-01T01:09:54;46.22;;;23.45;;
69030;SDS011;56083;48.774;8.942;2023-03-01T01:12:20;44.22;;;22.70;;
69030;SDS011;56083;48.774;8.942;2023-03-01T01:14:46;48.15;;;22.52;;
69030;SDS011;56083;48.774;8.942;2023-03-01T01:17:11;47.88;;;23.23;;
69030;SDS011;56083;48.774;8.942;2023-03-01T01:19:37;48.42;;;23.42;;
69030;SDS011;56083;48.774;8.942;2023-03-01T01:22:03;47.65;;;24.17;;
69030;SDS011;56083;48.774;8.942;2023-03-01T01:24:29;49.92;;;24.17;;
69030;SDS011;56083;48.774;8.942;2023-03-01T01:26:55;44.05;;;24.40;;
69030;SDS011;56083;48.774;8.942;2023-03-01T01:29:21;47.40;;;24.52;;
69030;SDS011;56083;48.774;8.942;2023-03-01T01:31:46;48.47;;;24.00;;
69030;SDS011;56083;48.774;8.942;2023-03-01T01:34:13;43.85;;;23.83;;
69030;SDS011;56083;48.774;8.942;2023-03-01T01:36:46;49.38;;;24.60;;
69030;SDS011;56083;48.774;8.942;2023-03-01T01:39:13;45.90;;;24.08;;
69030;SDS011;56083;48.774;8.942;2023-03-01T01:41:39;51.55;;;25.08;;
69030;SDS011;56083;48.774;8.942;2023-03-01T01:47:12;46.17;;;23.67;;
69030;SDS011;56083;48.774;8.942;2023-03-01T01:49:32;50.88;;;24.00;;
69030;SDS011;56083;48.774;8.942;2023-03-01T01:52:03;46.47;;;23.73;;
69030;SDS011;56083;48.774;8.942;2023-03-01T01:54:41;48.70;;;23.95;;
69030;SDS011;56083;48.774;8.942;2023-03-01T01:57:20;44.28;;;23.73;;
69030;SDS011;56083;48.774;8.942;2023-03-01T02:02:17;46.80;;;22.88;;
69030;SDS011;56083;48.774;8.942;2023-03-01T02:04:44;45.97;;;23.88;;
69030;SDS011;56083;48.774;8.942;2023-03-01T02:07:16;51.35;;;24.23;;
69030;SDS011;56083;48.774;8.942;2023-03-01T02:09:46;51.45;;;25.27;;
69030;SDS011;56083;48.774;8.942;2023-03-01T02:12:14;53.03;;;25.75;;
69030;SDS011;56083;48.774;8.942;2023-03-01T02:14:43;46.03;;;23.83;;
69030;SDS011;56083;48.774;8.942;2023-03-01T02:17:10;45.25;;;23.67;;
69030;SDS011;56083;48.774;8.942;2023-03-01T02:30:30;45.33;;;23.67;;
69030;SDS011;56083;48.774;8.942;2023-03-01T02:32:57;46.75;;;25.23;;
69030;SDS011;56083;48.774;8.942;2023-03-01T02:35:28;45.85;;;25.10;;
69030;SDS011;56083;48.774;8.942;2023-03-01T02:37:58;46.83;;;24.40;;
69030;SDS011;56083;48.774;8.942;2023-03-01T02:40:26;46.50;;;24.48;;
69030;SDS011;56083;48.774;8.942;2023-03-01T02:42:57;48.50;;;24.75;;
69030;SDS011;56083;48.774;8.942;2023-03-01T02:45:24;46.85;;;23.58;;
69030;SDS011;56083;48.774;8.942;2023-03-01T02:47:53;49.78;;;23.30;;
69030;SDS011;56083;48.774;8.942;2023-03-01T02:55:20;41.70;;;22.00;;
69030;SDS011;56083;48.774;8.942;2023-03-01T02:57:46;42.58;;;21.85;;
69030;SDS011;56083;48.774;8.942;2023-03-01T03:00:26;38.53;;;20.98;;
69030;SDS011;56083;48.774;8.942;2023-03-01T03:02:58;43.83;;;21.80;;
69030;SDS011;56083;48.774;8.942;2023-03-01T03:05:25;40.00;;;20.10;;
69030;SDS011;56083;48.774;8.942;2023-03-01T03:07:52;37.17;;;21.23;;
69030;SDS011;56083;48.774;8.942;2023-03-01T03:10:19;38.10;;;20.00;;
69030;SDS011;56083;48.774;8.942;2023-03-01T03:12:51;40.88;;;21.73;;
69030;SDS011;56083;48.774;8.942;2023-03-01T03:15:19;36.42;;;20.30;;
69030;SDS011;56083;48.774;8.942;2023-03-01T03:17:45;38.55;;;20.60;;
69030;SDS011;56083;48.774;8.942;2023-03-01T03:20:12;39.22;;;21.20;;
69030;SDS011;56083;48.774;8.942;2023-03-01T03:22:44;40.05;;;21.85;;
69030;SDS011;56083;48.774;8.942;2023-03-01T03:25:14;39.47;;;21.80;;
69030;SDS011;56083;48.774;8.942;2023-03-01T03:27:41;40.72;;;22.08;;
69030;SDS011;56083;48.774;8.942;2023-03-01T03:30:09;39.83;;;21.70;;
69030;SDS011;56083;48.774;8.942;2023-03-01T03:32:42;44.38;;;22.85;;
69030;SDS011;56083;48.774;8.942;2023-03-01T03:35:17;38.38;;;21.67;;
69030;SDS011;56083;48.774;8.942;2023-03-01T03:37:51;43.55;;;22.58;;
69030;SDS011;56083;48.774;8.942;2023-03-01T03:40:34;44.40;;;22.98;;
69030;SDS011;56083;48.774;8.942;2023-03-01T03:43:02;42.45;;;21.95;;
69030;SDS011;56083;48.774;8.942;2023-03-01T03:45:29;42.45;;;21.55;;
69030;SDS011;56083;48.774;8.942;2023-03-01T03:47:58;39.92;;;22.17;;
69030;SDS011;56083;48.774;8.942;2023-03-01T03:50:24;39.72;;;22.23;;
69030;SDS011;56083;48.774;8.942;2023-03-01T03:52:49;40.78;;;22.23;;
69030;SDS011;56083;48.774;8.942;2023-03-01T03:55:15;38.40;;;21.95;;
69030;SDS011;56083;48.774;8.942;2023-03-01T03:57:44;44.08;;;22.48;;
69030;SDS011;56083;48.774;8.942;2023-03-01T04:00:16;39.13;;;21.95;;
69030;SDS011;56083;48.774;8.942;2023-03-01T04:02:44;44.85;;;22.23;;
69030;SDS011;56083;48.774;8.942;2023-03-01T04:05:11;39.88;;;21.65;;
69030;SDS011;56083;48.774;8.942;2023-03-01T04:07:39;40.38;;;20.88;;
69030;SDS011;56083;48.774;8.942;2023-03-01T04:10:06;44.75;;;22.67;;
69030;SDS011;56083;48.774;8.942;2023-03-01T04:12:34;42.58;;;22.45;;
69030;SDS011;56083;48.774;8.942;2023-03-01T04:15:00;39.72;;;22.00;;
69030;SDS011;56083;48.774;8.942;2023-03-01T04:17:38;39.30;;;22.80;;
69030;SDS011;56083;48.774;8.942;2023-03-01T04:20:12;42.05;;;22.70;;
69030;SDS011;56083;48.774;8.942;2023-03-01T04:22:42;39.55;;;21.63;;
69030;SDS011;56083;48.774;8.942;2023-03-01T04:25:11;41.90;;;22.20;;
69030;SDS011;56083;48.774;8.942;2023-03-01T04:27:39;46.60;;;22.52;;
69030;SDS011;56083;48.774;8.942;2023-03-01T04:30:06;40.88;;;21.75;;
69030;SDS011;56083;48.774;8.942;2023-03-01T04:32:33;41.75;;;22.30;;
69030;SDS011;56083;48.774;8.942;2023-03-01T04:34:59;42.08;;;21.85;;
69030;SDS011;56083;48.774;8.942;2023-03-01T04:37:25;43.28;;;23.33;;
69030;SDS011;56083;48.774;8.942;2023-03-01T04:39:51;38.22;;;22.13;;
69030;SDS011;56083;48.774;8.942;2023-03-01T04:42:16;42.67;;;23.17;;
69030;SDS011;56083;48.774;8.942;2023-03-01T04:44:43;37.65;;;21.80;;
69030;SDS011;56083;48.774;8.942;2023-03-01T04:47:09;46.28;;;22.30;;
69030;SDS011;56083;48.774;8.942;2023-03-01T04:49:35;43.63;;;22.45;;
69030;SDS011;56083;48.774;8.942;2023-03-01T04:52:00;42.90;;;23.15;;
69030;SDS011;56083;48.774;8.942;2023-03-01T04:54:32;43.22;;;22.67;;
69030;SDS011;56083;48.774;8.942;2023-03-01T04:56:59;42.58;;;22.30;;
69030;SDS011;56083;48.774;8.942;2023-03-01T04:59:25;46.20;;;22.85;;
69030;SDS011;56083;48.774;8.942;2023-03-01T05:01:51;38.83;;;22.55;;
69030;SDS011;56083;48.774;8.942;2023-03-01T05:04:20;42.47;;;23.00;;
69030;SDS011;56083;48.774;8.942;2023-03-01T05:06:46;40.95;;;23.83;;
69030;SDS011;56083;48.774;8.942;2023-03-01T05:09:12;45.28;;;23.08;;
69030;SDS011;56083;48.774;8.942;2023-03-01T05:11:37;41.95;;;22.95;;
69030;SDS011;56083;48.774;8.942;2023-03-01T05:14:04;38.10;;;22.60;;
69030;SDS011;56083;48.774;8.942;2023-03-01T05:16:30;39.72;;;22.13;;
69030;SDS011;56083;48.774;8.942;2023-03-01T05:18:57;41.03;;;22.52;;
69030;SDS011;56083;48.774;8.942;2023-03-01T05:21:23;40.78;;;22.90;;
69030;SDS011;56083;48.774;8.942;2023-03-01T05:23:50;37.83;;;22.05;;
69030;SDS011;56083;48.774;8.942;2023-03-01T05:26:17;41.70;;;23.17;;
69030;SDS011;56083;48.774;8.942;2023-03-01T05:28:44;45.28;;;22.38;;
69030;SDS011;56083;48.774;8.942;2023-03-01T05:31:10;40.58;;;21.85;;
69030;SDS011;56083;48.774;8.942;2023-03-01T05:33:36;44.80;;;23.85;;
69030;SDS011;56083;48.774;8.942;2023-03-01T05:36:03;39.47;;;22.90;;
69030;SDS011;56083;48.774;8.942;2023-03-01T05:38:29;43.78;;;23.13;;
69030;SDS011;56083;48.774;8.942;2023-03-01T05:40:55;43.17;;;24.08;;
69030;SDS011;56083;48.774;8.942;2023-03-01T05:43:20;43.67;;;23.40;;
69030;SDS011;56083;48.774;8.942;2023-03-01T05:45:46;45.63;;;24.05;;
69030;SDS011;56083;48.774;8.942;2023-03-01T05:48:12;46.70;;;24.10;;
69030;SDS011;56083;48.774;8.942;2023-03-01T05:50:39;43.33;;;23.15;;
69030;SDS011;56083;48.774;8.942;2023-03-01T05:53:10;41.05;;;22.88;;
69030;SDS011;56083;48.774;8.942;2023-03-01T05:55:41;44.08;;;23.23;;
69030;SDS011;56083;48.774;8.942;2023-03-01T05:58:09;47.88;;;25.25;;
69030;SDS011;56083;48.774;8.942;2023-03-01T06:00:36;44.80;;;24.15;;
69030;SDS011;56083;48.774;8.942;2023-03-01T06:03:02;44.15;;;23.92;;
69030;SDS011;56083;48.774;8.942;2023-03-01T06:05:28;40.97;;;23.55;;
69030;SDS011;56083;48.774;8.942;2023-03-01T06:07:54;42.90;;;24.67;;
69030;SDS011;56083;48.774;8.942;2023-03-01T06:10:23;42.88;;;24.23;;
69030;SDS011;56083;48.774;8.942;2023-03-01T06:12:49;46.58;;;25.13;;
69030;SDS011;56083;48.774;8.942;2023-03-01T06:15:15;48.65;;;24.15;;
69030;SDS011;56083;48.774;8.942;2023-03-01T06:17:42;45.20;;;25.50;;
69030;SDS011;56083;48.774;8.942;2023-03-01T06:20:28;48.38;;;24.63;;
69030;SDS011;56083;48.774;8.942;2023-03-01T06:22:54;48.60;;;24.70;;
69030;SDS011;56083;48.774;8.942;2023-03-01T06:25:20;41.30;;;24.30;;
69030;SDS011;56083;48.774;8.942;2023-03-01T06:27:47;47.97;;;24.45;;
69030;SDS011;56083;48.774;8.942;2023-03-01T06:30:14;43.53;;;24.65;;
69030;SDS011;56083;48.774;8.942;2023-03-01T06:32:42;44.30;;;24.60;;
69030;SDS011;56083;48.774;8.942;2023-03-01T06:35:09;49.78;;;24.42;;
69030;SDS011;56083;48.774;8.942;2023-03-01T06:37:39;45.88;;;25.17;;
69030;SDS011;56083;48.774;8.942;2023-03-01T06:40:06;42.72;;;24.33;;
69030;SDS011;56083;48.774;8.942;2023-03-01T06:42:36;46.17;;;24.55;;
69030;SDS011;56083;48.774;8.942;2023-03-01T06:45:02;44.85;;;24.38;;
69030;SDS011;56083;48.774;8.942;2023-03-01T06:47:29;41.00;;;23.15;;
69030;SDS011;56083;48.774;8.942;2023-03-01T06:49:54;43.13;;;24.02;;
69030;SDS011;56083;48.774;8.942;2023-03-01T06:52:20;47.85;;;24.63;;
69030;SDS011;56083;48.774;8.942;2023-03-01T06:54:46;44.80;;;23.77;;
69030;SDS011;56083;48.774;8.942;2023-03-01T06:57:11;42.63;;;23.52;;
69030;SDS011;56083;48.774;8.942;2023-03-01T06:59:37;42.78;;;23.20;;
69030;SDS011;56083;48.774;8.942;2023-03-01T07:02:02;48.03;;;24.80;;
69030;SDS011;56083;48.774;8.942;2023-03-01T07:04:28;45.03;;;24.08;;
69030;SDS011;56083;48.774;8.942;2023-03-01T07:06:55;39.63;;;22.83;;
69030;SDS011;56083;48.774;8.942;2023-03-01T07:09:24;40.97;;;22.45;;
69030;SDS011;56083;48.774;8.942;2023-03-01T07:11:50;42.45;;;22.67;;
69030;SDS011;56083;48.774;8.942;2023-03-01T07:14:15;45.42;;;22.20;;
69030;SDS011;56083;48.774;8.942;2023-03-01T07:16:41;40.25;;;21.60;;
69030;SDS011;56083;48.774;8.942;2023-03-01T07:19:07;47.75;;;22.67;;
69030;SDS011;56083;48.774;8.942;2023-03-01T07:21:32;40.80;;;21.13;;
69030;SDS011;56083;48.774;8.942;2023-03-01T07:23:58;38.47;;;21.45;;
69030;SDS011;56083;48.774;8.942;2023-03-01T07:26:24;41.38;;;20.13;;
69030;SDS011;56083;48.774;8.942;2023-03-01T07:28:49;41.75;;;21.50;;
69030;SDS011;56083;48.774;8.942;2023-03-01T07:31:15;35.47;;;19.98;;
69030;SDS011;56083;48.774;8.942;2023-03-01T07:33:40;33.83;;;19.10;;
69030;SDS011;56083;48.774;8.942;2023-03-01T07:36:06;36.83;;;20.73;;
69030;SDS011;56083;48.774;8.942;2023-03-01T07:38:32;32.72;;;18.20;;
69030;SDS011;56083;48.774;8.942;2023-03-01T07:41:01;30.55;;;18.80;;
69030;SDS011;56083;48.774;8.942;2023-03-01T07:43:28;31.33;;;19.10;;
69030;SDS011;56083;48.774;8.942;2023-03-01T07:45:57;31.33;;;18.60;;
69030;SDS011;56083;48.774;8.942;2023-03-01T07:48:24;29.30;;;17.92;;
69030;SDS011;56083;48.774;8.942;2023-03-01T07:50:50;41.08;;;18.02;;
69030;SDS011;56083;48.774;8.942;2023-03-01T07:53:15;27.92;;;17.83;;
69030;SDS011;56083;48.774;8.942;2023-03-01T07:55:41;28.50;;;18.13;;
69030;SDS011;56083;48.774;8.942;2023-03-01T07:58:06;30.95;;;18.40;;
69030;SDS011;56083;48.774;8.942;2023-03-01T08:00:32;34.55;;;17.73;;
69030;SDS011;56083;48.774;8.942;2023-03-01T08:02:58;37.47;;;18.33;;
69030;SDS011;56083;48.774;8.942;2023-03-01T08:05:25;34.28;;;18.20;;
69030;SDS011;56083;48.774;8.942;2023-03-01T08:07:52;29.52;;;17.25;;
69030;SDS011;56083;48.774;8.942;2023-03-01T08:10:18;35.28;;;17.77;;
69030;SDS011;56083;48.774;8.942;2023-03-01T08:12:44;29.77;;;18.38;;
69030;SDS011;56083;48.774;8.942;2023-03-01T08:15:09;28.70;;;18.13;;
69030;SDS011;56083;48.774;8.942;2023-03-01T08:17:36;32.38;;;19.27;;
69030;SDS011;56083;48.774;8.942;2023-03-01T08:20:02;31.23;;;16.90;;
69030;SDS011;56083;48.774;8.942;2023-03-01T08:22:31;30.83;;;18.10;;
69030;SDS011;56083;48.774;8.942;2023-03-01T08:24:56;34.38;;;17.77;;
69030;SDS011;56083;48.774;8.942;2023-03-01T08:27:22;29.33;;;18.38;;
69030;SDS011;56083;48.774;8.942;2023-03-01T08:29:47;26.40;;;17.90;;
69030;SDS011;56083;48.774;8.942;2023-03-01T08:32:13;31.95;;;18.90;;
69030;SDS011;56083;48.774;8.942;2023-03-01T08:34:39;27.83;;;18.92;;
69030;SDS011;56083;48.774;8.942;2023-03-01T08:37:04;31.70;;;18.30;;
69030;SDS011;56083;48.774;8.942;2023-03-01T08:39:30;29.25;;;17.70;;
69030;SDS011;56083;48.774;8.942;2023-03-01T08:41:56;35.47;;;18.20;;
69030;SDS011;56083;48.774;8.942;2023-03-01T08:44:22;28.90;;;18.70;;
69030;SDS011;56083;48.774;8.942;2023-03-01T08:46:47;35.55;;;18.73;;
69030;SDS011;56083;48.774;8.942;2023-03-01T08:49:18;32.35;;;18.55;;
69030;SDS011;56083;48.774;8.942;2023-03-01T08:51:45;31.50;;;18.50;;
69030;SDS011;56083;48.774;8.942;2023-03-01T08:54:15;26.05;;;17.40;;
69030;SDS011;56083;48.774;8.942;2023-03-01T08:56:43;31.35;;;18.45;;
69030;SDS011;56083;48.774;8.942;2023-03-01T08:59:09;30.10;;;17.00;;
69030;SDS011;56083;48.774;8.942;2023-03-01T09:01:36;24.08;;;17.40;;
69030;SDS011;56083;48.774;8.942;2023-03-01T09:04:02;26.95;;;17.67;;
69030;SDS011;56083;48.774;8.942;2023-03-01T09:06:30;31.27;;;19.20;;
69030;SDS011;56083;48.774;8.942;2023-03-01T09:08:58;31.65;;;18.83;;
69030;SDS011;56083;48.774;8.942;2023-03-01T09:11:24;28.42;;;18.65;;
69030;SDS011;56083;48.774;8.942;2023-03-01T09:13:49;30.00;;;17.92;;
69030;SDS011;56083;48.774;8.942;2023-03-01T09:16:16;28.88;;;18.38;;
69030;SDS011;56083;48.774;8.942;2023-03-01T09:18:44;25.42;;;16.98;;
69030;SDS011;56083;48.774;8.942;2023-03-01T09:21:14;25.27;;;17.20;;
69030;SDS011;56083;48.774;8.942;2023-03-01T09:23:42;25.70;;;17.52;;
69030;SDS011;56083;48.774;8.942;2023-03-01T09:26:11;27.88;;;17.90;;
69030;SDS011;56083;48.774;8.942;2023-03-01T09:28:38;26.23;;;17.58;;
69030;SDS011;56083;48.774;8.942;2023-03-01T09:31:05;26.17;;;18.05;;
69030;SDS011;56083;48.774;8.942;2023-03-01T09:33:32;25.17;;;17.83;;
69030;SDS011;56083;48.774;8.942;2023-03-01T09:35:59;24.98;;;17.27;;
69030;SDS011;56083;48.774;8.942;2023-03-01T09:38:29;30.30;;;17.05;;
69030;SDS011;56083;48.774;8.942;2023-03-01T09:40:55;26.50;;;17.33;;
69030;SDS011;56083;48.774;8.942;2023-03-01T09:46:08;27.73;;;17.20;;
69030;SDS011;56083;48.774;8.942;2023-03-01T09:48:50;28.40;;;18.35;;
69030;SDS011;56083;48.774;8.942;2023-03-01T09:51:25;28.40;;;17.50;;
69030;SDS011;56083;48.774;8.942;2023-03-01T09:53:54;26.58;;;18.13;;
69030;SDS011;56083;48.774;8.942;2023-03-01T09:56:24;27.67;;;17.75;;
69030;SDS011;56083;48.774;8.942;2023-03-01T10:01:54;24.05;;;17.02;;
69030;SDS011;56083;48.774;8.942;2023-03-01T10:04:28;31.00;;;17.05;;
69030;SDS011;56083;48.774;8.942;2023-03-01T10:09:37;31.85;;;18.17;;
69030;SDS011;56083;48.774;8.942;2023-03-01T10:12:08;25.42;;;17.10;;
69030;SDS011;56083;48.774;8.942;2023-03-01T10:14:37;23.05;;;16.13;;
69030;SDS011;56083;48.774;8.942;2023-03-01T10:20:24;26.20;;;17.50;;
69030;SDS011;56083;48.774;8.942;2023-03-01T10:22:51;26.08;;;16.52;;
69030;SDS011;56083;48.774;8.942;2023-03-01T10:31:05;25.33;;;16.23;;
69030;SDS011;56083;48.774;8.942;2023-03-01T10:33:40;29.17;;;17.52;;
69030;SDS011;56083;48.774;8.942;2023-03-01T10:36:06;20.95;;;16.58;;
69030;SDS011;56083;48.774;8.942;2023-03-01T10:38:46;22.85;;;15.98;;
69030;SDS011;56083;48.774;8.942;2023-03-01T10:41:14;22.92;;;16.52;;
69030;SDS011;56083;48.774;8.942;2023-03-01T10:43:50;25.48;;;17.95;;
69030;SDS011;56083;48.774;8.942;2023-03-01T10:46:32;21.33;;;16.30;;
69030;SDS011;56083;48.774;8.942;2023-03-01T10:51:49;23.17;;;15.95;;
69030;SDS011;56083;48.774;8.942;2023-03-01T10:54:20;22.13;;;15.95;;
69030;SDS011;56083;48.774;8.942;2023-03-01T10:57:00;21.52;;;15.38;;
69030;SDS011;56083;48.774;8.942;2023-03-01T10:59:28;25.55;;;16.50;;
69030;SDS011;56083;48.774;8.942;2023-03-01T11:04:27;24.67;;;16.10;;
69030;SDS011;56083;48.774;8.942;2023-03-01T11:06:59;21.10;;;16.20;;
69030;SDS011;56083;48.774;8.942;2023-03-01T11:09:25;23.10;;;15.27;;
69030;SDS011;56083;48.774;8.942;2023-03-01T11:11:59;23.50;;;16.10;;
69030;SDS011;56083;48.774;8.942;2023-03-01T11:14:26;23.23;;;16.77;;
69030;SDS011;56083;48.774;8.942;2023-03-01T11:19:37;23.00;;;16.83;;
69030;SDS011;56083;48.774;8.942;2023-03-01T11:22:13;22.00;;;16.10;;
69030;SDS011;56083;48.774;8.942;2023-03-01T11:24:49;21.33;;;16.27;;
69030;SDS011;56083;48.774;8.942;2023-03-01T11:27:24;23.08;;;16.33;;
69030;SDS011;56083;48.774;8.942;2023-03-01T11:29:58;19.45;;;15.13;;
69030;SDS011;56083;48.774;8.942;2023-03-01T11:32:25;22.33;;;15.05;;
69030;SDS011;56083;48.774;8.942;2023-03-01T11:35:08;22.58;;;15.50;;
69030;SDS011;56083;48.774;8.942;2023-03-01T11:37:48;21.88;;;15.85;;
69030;SDS011;56083;48.774;8.942;2023-03-01T11:40:29;23.40;;;15.43;;
69030;SDS011;56083;48.774;8.942;2023-03-01T11:43:23;26.15;;;15.88;;
69030;SDS011;56083;48.774;8.942;2023-03-01T11:51:09;21.35;;;15.00;;
69030;SDS011;56083;48.774;8.942;2023-03-01T11:53:56;22.85;;;15.98;;
69030;SDS011;56083;48.774;8.942;2023-03-01T11:56:47;19.13;;;15.50;;
69030;SDS011;56083;48.774;8.942;2023-03-01T12:05:09;19.38;;;15.05;;
69030;SDS011;56083;48.774;8.942;2023-03-01T12:08:26;20.80;;;14.77;;
69030;SDS011;56083;48.774;8.942;2023-03-01T12:10:59;21.63;;;14.48;;
69030;SDS011;56083;48.774;8.942;2023-03-01T12:16:09;19.33;;;14.57;;
69030;SDS011;56083;48.774;8.942;2023-03-01T12:29:47;18.20;;;13.98;;
69030;SDS011;56083;48.774;8.942;2023-03-01T12:40:23;28.70;;;15.13;;
69030;SDS011;56083;48.774;8.942;2023-03-01T12:45:59;20.52;;;15.20;;
69030;SDS011;56083;48.774;8.942;2023-03-01T12:48:53;32.17;;;15.55;;
69030;SDS011;56083;48.774;8.942;2023-03-01T12:51:58;20.65;;;14.70;;
69030;SDS011;56083;48.774;8.942;2023-03-01T12:54:35;18.92;;;14.75;;
69030;SDS011;56083;48.774;8.942;2023-03-01T12:57:14;22.35;;;15.20;;
69030;SDS011;56083;48.774;8.942;2023-03-01T13:03:00;25.23;;;15.43;;
69030;SDS011;56083;48.774;8.942;2023-03-01T13:05:39;20.90;;;14.55;;
69030;SDS011;56083;48.774;8.942;2023-03-01T13:08:29;22.98;;;14.00;;
69030;SDS011;56083;48.774;8.942;2023-03-01T13:11:16;18.95;;;14.45;;
69030;SDS011;56083;48.774;8.942;2023-03-01T13:13:44;22.08;;;14.38;;
69030;SDS011;56083;48.774;8.942;2023-03-01T13:21:42;19.13;;;14.63;;
69030;SDS011;56083;48.774;8.942;2023-03-01T13:29:45;29.80;;;14.73;;
69030;SDS011;56083;48.774;8.942;2023-03-01T13:35:03;21.77;;;15.18;;
69030;SDS011;56083;48.774;8.942;2023-03-01T13:37:44;20.38;;;14.75;;
69030;SDS011;56083;48.774;8.942;2023-03-01T13:42:46;34.85;;;16.42;;
69030;SDS011;56083;48.774;8.942;2023-03-01T13:45:23;22.65;;;16.33;;
69030;SDS011;56083;48.774;8.942;2023-03-01T13:48:16;30.20;;;18.73;;
69030;SDS011;56083;48.774;8.942;2023-03-01T13:50:50;24.17;;;16.33;;
69030;SDS011;56083;48.774;8.942;2023-03-01T13:53:20;24.92;;;16.08;;
69030;SDS011;56083;48.774;8.942;2023-03-01T13:56:00;27.90;;;16.80;;
69030;SDS011;56083;48.774;8.942;2023-03-01T13:58:32;25.02;;;16.05;;
69030;SDS011;56083;48.774;8.942;2023-03-01T14:04:17;24.98;;;16.73;;
69030;SDS011;56083;48.774;8.942;2023-03-01T14:06:47;26.83;;;16.30;;
69030;SDS011;56083;48.774;8.942;2023-03-01T14:09:20;28.33;;;16.80;;
69030;SDS011;56083;48.774;8.942;2023-03-01T14:17:33;27.95;;;17.00;;
69030;SDS011;56083;48.774;8.942;2023-03-01T14:20:18;22.85;;;16.35;;
69030;SDS011;56083;48.774;8.942;2023-03-01T14:22:47;25.05;;;16.08;;
69030;SDS011;56083;48.774;8.942;2023-03-01T14:27:55;23.67;;;16.95;;
69030;SDS011;56083;48.774;8.942;2023-03-01T14:30:43;26.88;;;16.63;;
69030;SDS011;56083;48.774;8.942;2023-03-01T14:33:27;28.13;;;17.00;;
69030;SDS011;56083;48.774;8.942;2023-03-01T14:36:06;26.67;;;17.17;;
69030;SDS011;56083;48.774;8.942;2023-03-01T14:38:41;24.00;;;17.00;;
69030;SDS011;56083;48.774;8.942;2023-03-01T14:41:09;28.40;;;16.52;;
69030;SDS011;56083;48.774;8.942;2023-03-01T14:43:44;27.40;;;16.35;;
69030;SDS011;56083;48.774;8.942;2023-03-01T14:49:28;27.70;;;17.63;;
69030;SDS011;56083;48.774;8.942;2023-03-01T14:51:59;25.27;;;17.15;;
69030;SDS011;56083;48.774;8.942;2023-03-01T14:54:44;24.95;;;16.75;;
69030;SDS011;56083;48.774;8.942;2023-03-01T14:57:20;29.83;;;17.30;;
69030;SDS011;56083;48.774;8.942;2023-03-01T14:59:46;28.42;;;17.15;;
69030;SDS011;56083;48.774;8.942;2023-03-01T15:02:15;22.65;;;16.60;;
69030;SDS011;56083;48.774;8.942;2023-03-01T15:04:47;24.67;;;16.38;;
69030;SDS011;56083;48.774;8.942;2023-03-01T15:07:26;26.92;;;17.08;;
69030;SDS011;56083;48.774;8.942;2023-03-01T15:09:56;25.42;;;16.83;;
69030;SDS011;56083;48.774;8.942;2023-03-01T15:14:57;26.40;;;16.23;;
69030;SDS011;56083;48.774;8.942;2023-03-01T15:17:29;25.15;;;16.80;;
69030;SDS011;56083;48.774;8.942;2023-03-01T15:20:13;24.73;;;17.13;;
69030;SDS011;56083;48.774;8.942;2023-03-01T15:22:46;23.65;;;16.88;;
69030;SDS011;56083;48.774;8.942;2023-03-01T15:25:21;26.35;;;16.35;;
69030;SDS011;56083;48.774;8.942;2023-03-01T15:27:49;31.00;;;17.05;;
69030;SDS011;56083;48.774;8.942;2023-03-01T15:35:54;30.40;;;17.70;;
69030;SDS011;56083;48.774;8.942;2023-03-01T15:41:32;28.25;;;17.85;;
69030;SDS011;56083;48.774;8.942;2023-03-01T15:46:53;29.27;;;17.88;;
69030;SDS011;56083;48.774;8.942;2023-03-01T15:51:59;30.52;;;17.45;;
69030;SDS011;56083;48.774;8.942;2023-03-01T15:54:25;30.98;;;18.52;;
69030;SDS011;56083;48.774;8.942;2023-03-01T15:56:52;27.92;;;17.65;;
69030;SDS011;56083;48.774;8.942;2023-03-01T15:59:18;30.05;;;18.60;;
69030;SDS011;56083;48.774;8.942;2023-03-01T16:01:44;30.10;;;17.13;;
69030;SDS011;56083;48.774;8.942;2023-03-01T16:04:11;36.90;;;19.17;;
69030;SDS011;56083;48.774;8.942;2023-03-01T16:06:54;38.42;;;18.55;;
69030;SDS011;56083;48.774;8.942;2023-03-01T16:09:23;28.67;;;17.85;;
69030;SDS011;56083;48.774;8.942;2023-03-01T16:11:50;30.27;;;18.30;;
69030;SDS011;56083;48.774;8.942;2023-03-01T16:14:17;29.80;;;17.67;;
69030;SDS011;56083;48.774;8.942;2023-03-01T16:16:43;31.38;;;18.17;;
69030;SDS011;56083;48.774;8.942;2023-03-01T16:19:09;32.80;;;18.63;;
69030;SDS011;56083;48.774;8.942;2023-03-01T16:21:35;30.83;;;19.48;;
69030;SDS011;56083;48.774;8.942;2023-03-01T16:24:01;33.80;;;18.38;;
69030;SDS011;56083;48.774;8.942;2023-03-01T16:26:27;33.20;;;19.40;;
69030;SDS011;56083;48.774;8.942;2023-03-01T16:28:56;30.77;;;18.65;;
69030;SDS011;56083;48.774;8.942;2023-03-01T16:31:22;33.63;;;19.63;;
69030;SDS011;56083;48.774;8.942;2023-03-01T16:33:52;30.75;;;19.77;;
69030;SDS011;56083;48.774;8.942;2023-03-01T16:36:20;34.22;;;19.48;;
69030;SDS011;56083;48.774;8.942;2023-03-01T16:38:48;32.75;;;19.17;;
69030;SDS011;56083;48.774;8.942;2023-03-01T16:41:15;33.72;;;20.33;;
69030;SDS011;56083;48.774;8.942;2023-03-01T16:43:42;33.22;;;19.17;;
69030;SDS011;56083;48.774;8.942;2023-03-01T16:46:11;34.70;;;20.23;;
69030;SDS011;56083;48.774;8.942;2023-03-01T16:48:39;37.85;;;20.63;;